createdAt,value
2018-09-09T00:02:11.736Z,1.90
2018-09-09T00:04:38.935Z,2.20
2018-09-09T00:08:30.720Z,2.40
2018-09-09T00:10:57.963Z,1.92
2018-09-09T00:13:25.197Z,1.98
2018-09-09T00:15:52.403Z,2.07
2018-09-09T00:18:19.673Z,2.25
2018-09-09T00:20:46.856Z,2.80
2018-09-09T00:23:14.103Z,2.75
2018-09-09T00:25:41.294Z,2.50
2018-09-09T00:28:08.449Z,2.55
2018-09-09T00:30:35.676Z,2.65
2018-09-09T00:33:02.901Z,2.62
2018-09-09T00:35:30.117Z,2.33
2018-09-09T00:37:57.377Z,3.27
2018-09-09T00:40:24.648Z,2.77
2018-09-09T00:42:51.938Z,3.20
2018-09-09T00:45:19.145Z,2.40
2018-09-09T00:47:46.432Z,2.80
2018-09-09T00:50:19.458Z,2.30
2018-09-09T00:52:52.429Z,3.50
2018-09-09T00:55:19.646Z,3.05
2018-09-09T00:57:46.863Z,2.30
2018-09-09T01:00:16.938Z,2.77
2018-09-09T01:02:44.158Z,2.80
2018-09-09T01:05:11.431Z,2.83
2018-09-09T01:07:38.693Z,2.65
2018-09-09T01:10:05.896Z,3.30
2018-09-09T01:12:33.144Z,3.25
2018-09-09T01:15:00.296Z,3.33
2018-09-09T01:17:27.565Z,3.85
2018-09-09T01:19:54.794Z,2.65
2018-09-09T01:22:21.965Z,3.75
2018-09-09T01:24:49.155Z,2.90
2018-09-09T01:27:16.412Z,2.45
2018-09-09T01:29:43.634Z,3.15
2018-09-09T01:32:10.878Z,3.17
2018-09-09T01:34:38.097Z,3.45
2018-09-09T01:37:05.361Z,2.45
2018-09-09T01:39:32.600Z,2.85
2018-09-09T01:41:59.787Z,2.83
2018-09-09T01:44:27.034Z,3.17
2018-09-09T01:46:54.313Z,2.12
2018-09-09T01:49:21.529Z,2.50
2018-09-09T01:51:48.760Z,2.42
2018-09-09T01:54:16.003Z,2.62
2018-09-09T01:56:43.179Z,2.40
2018-09-09T01:59:10.444Z,2.22
2018-09-09T02:01:37.661Z,2.65
2018-09-09T02:04:04.960Z,3.33
2018-09-09T02:06:32.184Z,2.20
2018-09-09T02:08:59.392Z,2.22
2018-09-09T02:11:26.615Z,2.70
2018-09-09T02:13:53.888Z,2.15
2018-09-09T02:16:21.097Z,2.17
2018-09-09T02:18:48.321Z,3.02
2018-09-09T02:21:15.560Z,2.50
2018-09-09T02:26:22.423Z,2.80
2018-09-09T02:28:49.645Z,2.25
2018-09-09T02:31:16.805Z,2.45
2018-09-09T02:33:44.102Z,2.40
2018-09-09T02:36:11.580Z,2.65
2018-09-09T02:38:38.860Z,2.90
2018-09-09T02:41:06.017Z,2.83
2018-09-09T02:43:33.234Z,2.40
2018-09-09T02:46:00.488Z,2.08
2018-09-09T02:48:27.697Z,2.65
2018-09-09T02:50:54.880Z,2.25
2018-09-09T02:53:22.107Z,2.40
2018-09-09T02:55:49.373Z,2.02
2018-09-09T02:58:16.638Z,2.12
2018-09-09T03:00:44.024Z,2.40
2018-09-09T03:03:11.265Z,2.35
2018-09-09T03:05:38.662Z,2.87
2018-09-09T03:08:06.373Z,2.95
2018-09-09T03:10:33.670Z,2.10
2018-09-09T03:13:01.030Z,2.30
2018-09-09T03:15:28.312Z,2.60
2018-09-09T03:17:55.518Z,2.30
2018-09-09T03:20:22.787Z,3.40
2018-09-09T03:22:50.022Z,3.08
2018-09-09T03:25:17.198Z,2.67
2018-09-09T03:27:44.426Z,2.27
2018-09-09T03:30:11.662Z,3.50
2018-09-09T03:32:38.937Z,3.12
2018-09-09T03:35:06.218Z,2.92
2018-09-09T03:37:33.399Z,3.30
2018-09-09T03:40:00.641Z,2.80
2018-09-09T03:42:27.880Z,3.58
2018-09-09T03:44:55.095Z,3.20
2018-09-09T03:47:22.346Z,2.90
2018-09-09T03:49:49.594Z,2.90
2018-09-09T03:52:16.848Z,2.70
2018-09-09T03:54:44.005Z,2.70
2018-09-09T03:57:11.206Z,2.45
2018-09-09T03:59:38.509Z,3.20
2018-09-09T04:02:05.803Z,2.55
2018-09-09T04:04:33.063Z,3.00
2018-09-09T04:07:00.305Z,2.50
2018-09-09T04:09:27.535Z,2.15
2018-09-09T04:11:54.784Z,2.72
2018-09-09T04:14:21.953Z,2.42
2018-09-09T04:16:49.171Z,2.75
2018-09-09T04:19:16.366Z,2.87
2018-09-09T04:21:51.931Z,1.92
2018-09-09T04:24:20.253Z,3.10
2018-09-09T04:26:47.628Z,2.90
2018-09-09T04:29:15.052Z,3.05
2018-09-09T04:31:42.509Z,2.35
2018-09-09T04:34:09.813Z,3.12
2018-09-09T04:36:37.095Z,2.92
2018-09-09T04:39:07.417Z,2.67
2018-09-09T04:41:34.561Z,2.90
2018-09-09T04:44:01.780Z,2.60
2018-09-09T04:46:29.121Z,2.20
2018-09-09T04:48:56.249Z,2.98
2018-09-09T04:51:23.454Z,2.30
2018-09-09T04:53:50.617Z,2.02
2018-09-09T04:56:17.890Z,2.20
2018-09-09T04:58:45.103Z,2.60
2018-09-09T05:01:12.436Z,3.40
2018-09-09T05:03:39.612Z,3.00
2018-09-09T05:06:06.902Z,3.10
2018-09-09T05:08:34.131Z,3.05
2018-09-09T05:11:01.365Z,2.20
2018-09-09T05:13:28.590Z,1.98
2018-09-09T05:15:55.823Z,2.95
2018-09-09T05:18:22.979Z,2.20
2018-09-09T05:20:50.225Z,2.60
2018-09-09T05:23:17.397Z,2.80
2018-09-09T05:25:44.625Z,2.87
2018-09-09T05:28:11.878Z,3.70
2018-09-09T05:30:39.096Z,2.70
2018-09-09T05:33:06.347Z,2.30
2018-09-09T05:35:33.561Z,2.20
2018-09-09T05:38:00.781Z,2.42
2018-09-09T05:40:28.006Z,2.55
2018-09-09T05:42:55.204Z,2.02
2018-09-09T05:45:22.416Z,2.40
2018-09-09T05:47:49.701Z,2.35
2018-09-09T05:50:17.013Z,2.10
2018-09-09T05:52:44.185Z,2.45
2018-09-09T05:55:11.504Z,2.25
2018-09-09T05:57:38.945Z,2.95
2018-09-09T06:00:06.203Z,2.30
2018-09-09T06:02:33.518Z,2.22
2018-09-09T06:05:00.745Z,2.12
2018-09-09T06:07:27.978Z,2.35
2018-09-09T06:09:55.158Z,2.20
2018-09-09T06:12:22.355Z,1.90
2018-09-09T06:14:49.610Z,2.30
2018-09-09T06:17:16.742Z,2.77
2018-09-09T06:19:43.965Z,2.85
2018-09-09T06:22:11.235Z,2.67
2018-09-09T06:24:38.483Z,2.37
2018-09-09T06:27:05.717Z,1.90
2018-09-09T06:29:32.924Z,2.65
2018-09-09T06:32:00.212Z,2.25
2018-09-09T06:34:27.408Z,2.77
2018-09-09T06:36:54.667Z,2.55
2018-09-09T06:39:21.883Z,2.40
2018-09-09T06:41:49.187Z,2.20
2018-09-09T06:44:16.479Z,3.20
2018-09-09T06:46:43.773Z,2.90
2018-09-09T06:49:11.012Z,2.90
2018-09-09T06:51:38.239Z,2.60
2018-09-09T06:54:05.536Z,2.47
2018-09-09T06:56:32.923Z,2.73
2018-09-09T06:59:00.114Z,2.60
2018-09-09T07:01:27.333Z,2.60
2018-09-09T07:03:54.551Z,3.23
2018-09-09T07:06:21.828Z,2.80
2018-09-09T07:08:49.068Z,2.40
2018-09-09T07:11:16.270Z,3.80
2018-09-09T07:13:43.527Z,2.80
2018-09-09T07:16:10.782Z,2.43
2018-09-09T07:18:38.091Z,3.77
2018-09-09T07:21:05.332Z,2.90
2018-09-09T07:23:32.554Z,3.00
2018-09-09T07:25:59.798Z,2.50
2018-09-09T07:28:27.044Z,2.23
2018-09-09T07:30:54.208Z,2.13
2018-09-09T07:33:21.410Z,3.03
2018-09-09T07:35:48.641Z,2.33
2018-09-09T07:38:15.897Z,2.60
2018-09-09T07:40:43.220Z,2.23
2018-09-09T07:43:10.535Z,2.00
2018-09-09T07:45:37.696Z,2.43
2018-09-09T07:48:05.345Z,3.43
2018-09-09T07:50:32.620Z,2.30
2018-09-09T07:52:59.848Z,2.23
2018-09-09T07:55:27.047Z,2.90
2018-09-09T07:57:54.292Z,2.57
2018-09-09T08:00:21.548Z,2.70
2018-09-09T08:02:48.765Z,1.90
2018-09-09T08:05:15.987Z,2.50
2018-09-09T08:07:43.234Z,1.50
2018-09-09T08:10:10.521Z,1.90
2018-09-09T08:12:37.758Z,2.40
2018-09-09T08:15:05.468Z,3.40
2018-09-09T08:17:32.685Z,2.17
2018-09-09T08:19:59.873Z,2.60
2018-09-09T08:22:27.139Z,2.00
2018-09-09T08:24:54.421Z,1.97
2018-09-09T08:27:21.730Z,2.10
2018-09-09T08:29:48.996Z,1.77
2018-09-09T08:32:16.220Z,1.80
2018-09-09T08:34:43.460Z,1.90
2018-09-09T08:37:10.725Z,1.30
2018-09-09T08:39:37.949Z,1.67
2018-09-09T08:42:05.245Z,1.30
2018-09-09T08:44:32.457Z,1.57
2018-09-09T08:46:59.734Z,1.40
2018-09-09T08:49:26.951Z,1.80
2018-09-09T08:51:54.220Z,1.53
2018-09-09T08:54:21.442Z,1.50
2018-09-09T08:56:48.640Z,1.33
2018-09-09T08:59:15.873Z,1.40
2018-09-09T09:01:43.064Z,1.67
2018-09-09T09:04:10.275Z,1.80
2018-09-09T09:06:37.468Z,1.50
2018-09-09T09:09:06.989Z,2.10
2018-09-09T09:11:34.227Z,1.30
2018-09-09T09:14:01.521Z,1.53
2018-09-09T09:16:28.723Z,1.63
2018-09-09T09:18:55.927Z,1.67
2018-09-09T09:21:23.164Z,1.10
2018-09-09T09:23:50.381Z,1.13
2018-09-09T09:26:17.720Z,1.53
2018-09-09T09:28:44.958Z,1.10
2018-09-09T09:31:12.182Z,1.40
2018-09-09T09:33:39.445Z,1.20
2018-09-09T09:36:07.028Z,0.90
2018-09-09T09:38:34.298Z,1.00
2018-09-09T09:41:01.515Z,1.00
2018-09-09T09:43:28.765Z,0.80
2018-09-09T09:45:55.990Z,0.80
2018-09-09T09:48:23.248Z,1.20
2018-09-09T09:50:50.447Z,0.90
2018-09-09T09:53:17.771Z,1.23
2018-09-09T09:55:44.963Z,1.10
2018-09-09T09:58:12.203Z,1.30
2018-09-09T10:01:01.048Z,1.47
2018-09-09T10:03:28.351Z,1.07
2018-09-09T10:05:55.538Z,1.23
2018-09-09T10:08:22.780Z,1.00
2018-09-09T10:10:50.114Z,1.13
2018-09-09T10:13:17.346Z,1.13
2018-09-09T10:15:44.585Z,1.33
2018-09-09T10:18:11.837Z,0.97
2018-09-09T10:20:39.144Z,1.20
2018-09-09T10:23:06.473Z,0.93
2018-09-09T10:25:33.727Z,1.30
2018-09-09T10:28:00.937Z,1.00
2018-09-09T10:30:28.181Z,1.10
2018-09-09T10:32:55.933Z,1.40
2018-09-09T10:35:23.536Z,1.33
2018-09-09T10:37:50.774Z,1.03
2018-09-09T10:40:18.120Z,1.40
2018-09-09T10:42:45.287Z,1.23
2018-09-09T10:45:12.575Z,1.50
2018-09-09T10:47:39.882Z,1.47
2018-09-09T10:50:07.202Z,1.10
2018-09-09T10:52:34.430Z,1.40
2018-09-09T10:55:01.783Z,1.60
2018-09-09T10:57:29.053Z,1.50
2018-09-09T10:59:56.413Z,1.13
2018-09-09T11:02:24.066Z,1.20
2018-09-09T11:04:51.403Z,1.53
2018-09-09T11:07:18.960Z,1.20
2018-09-09T11:09:46.207Z,1.00
2018-09-09T11:12:13.472Z,1.17
2018-09-09T11:14:40.777Z,1.43
2018-09-09T11:17:07.977Z,1.00
2018-09-09T11:19:35.294Z,1.00
2018-09-09T11:22:02.535Z,1.07
2018-09-09T11:24:29.857Z,1.20
2018-09-09T11:26:56.997Z,1.90
2018-09-09T11:29:24.243Z,1.10
2018-09-09T11:31:51.505Z,1.00
2018-09-09T11:34:18.745Z,1.03
2018-09-09T11:36:46.068Z,1.10
2018-09-09T11:39:13.311Z,1.50
2018-09-09T11:41:42.287Z,1.60
2018-09-09T11:44:09.638Z,1.57
2018-09-09T11:46:36.980Z,1.60
2018-09-09T11:49:04.201Z,1.53
2018-09-09T11:51:31.836Z,1.33
2018-09-09T11:53:59.114Z,1.47
2018-09-09T11:56:26.753Z,1.43
2018-09-09T11:58:54.211Z,1.87
2018-09-09T12:01:21.551Z,1.20
2018-09-09T12:03:48.846Z,1.40
2018-09-09T12:06:16.170Z,1.10
2018-09-09T12:08:43.431Z,1.10
2018-09-09T12:11:10.667Z,1.57
2018-09-09T12:13:37.973Z,1.37
2018-09-09T12:16:05.263Z,1.10
2018-09-09T12:18:32.566Z,1.33
2018-09-09T12:20:59.939Z,1.00
2018-09-09T12:23:29.141Z,1.00
2018-09-09T12:25:56.408Z,1.00
2018-09-09T12:28:23.664Z,2.30
2018-09-09T12:30:50.915Z,1.47
2018-09-09T12:33:18.216Z,1.40
2018-09-09T12:35:45.563Z,1.40
2018-09-09T12:38:12.799Z,1.17
2018-09-09T12:40:40.038Z,1.40
2018-09-09T12:43:13.047Z,1.67
2018-09-09T12:46:48.874Z,1.80
2018-09-09T12:49:18.769Z,1.30
2018-09-09T12:51:47.595Z,1.00
2018-09-09T12:54:14.836Z,0.90
2018-09-09T12:56:42.138Z,1.10
2018-09-09T12:59:09.401Z,0.90
2018-09-09T13:01:36.648Z,1.07
2018-09-09T13:04:03.938Z,1.10
2018-09-09T13:06:31.135Z,1.07
2018-09-09T13:08:58.412Z,1.37
2018-09-09T13:11:25.974Z,0.83
2018-09-09T13:13:53.256Z,1.20
2018-09-09T13:16:20.489Z,1.30
2018-09-09T13:18:47.789Z,1.00
2018-09-09T13:21:14.976Z,0.90
2018-09-09T13:23:42.296Z,1.30
2018-09-09T13:26:09.573Z,1.63
2018-09-09T13:28:36.816Z,1.20
2018-09-09T13:31:04.145Z,1.27
2018-09-09T13:33:31.416Z,1.73
2018-09-09T13:36:00.157Z,1.30
2018-09-09T13:38:27.431Z,1.50
2018-09-09T13:40:54.704Z,1.13
2018-09-09T13:43:22.034Z,1.10
2018-09-09T13:45:49.334Z,1.17
2018-09-09T13:48:16.760Z,0.93
2018-09-09T13:50:43.956Z,1.17
2018-09-09T13:53:11.242Z,1.43
2018-09-09T13:55:38.470Z,1.10
2018-09-09T13:58:05.697Z,1.27
2018-09-09T14:00:32.978Z,1.20
2018-09-09T14:03:00.282Z,1.10
2018-09-09T14:05:27.555Z,1.30
2018-09-09T14:07:54.749Z,0.90
2018-09-09T14:10:22.056Z,0.87
2018-09-09T14:12:49.276Z,1.00
2018-09-09T14:15:16.516Z,1.70
2018-09-09T14:17:43.697Z,1.07
2018-09-09T14:20:10.950Z,1.40
2018-09-09T14:22:38.423Z,1.20
2018-09-09T14:25:05.724Z,1.33
2018-09-09T14:27:32.930Z,0.93
2018-09-09T14:30:00.160Z,0.97
2018-09-09T14:32:27.437Z,1.10
2018-09-09T14:34:54.804Z,1.10
2018-09-09T14:37:22.076Z,1.03
2018-09-09T14:39:49.317Z,1.03
2018-09-09T14:42:16.566Z,1.53
2018-09-09T14:44:43.847Z,1.50
2018-09-09T14:47:11.040Z,1.20
2018-09-09T14:49:38.389Z,1.10
2018-09-09T14:52:05.672Z,0.97
2018-09-09T14:54:33.007Z,1.27
2018-09-09T14:57:00.251Z,1.33
2018-09-09T14:59:27.495Z,1.10
2018-09-09T15:01:54.666Z,0.93
2018-09-09T15:04:21.883Z,1.00
2018-09-09T15:06:49.156Z,1.00
2018-09-09T15:09:16.387Z,1.00
2018-09-09T15:11:43.625Z,1.20
2018-09-09T15:14:10.911Z,1.00
2018-09-09T15:16:38.207Z,1.20
2018-09-09T15:19:05.457Z,1.20
2018-09-09T15:21:32.687Z,1.00
2018-09-09T15:23:59.975Z,0.97
2018-09-09T15:26:27.277Z,1.00
2018-09-09T15:28:54.580Z,0.87
2018-09-09T15:31:21.857Z,1.10
2018-09-09T15:33:49.069Z,1.03
2018-09-09T15:36:16.582Z,1.40
2018-09-09T15:38:43.924Z,0.83
2018-09-09T15:41:11.093Z,0.90
2018-09-09T15:43:38.369Z,1.03
2018-09-09T15:46:05.664Z,1.10
2018-09-09T15:48:32.964Z,1.27
2018-09-09T15:51:00.229Z,1.20
2018-09-09T15:53:27.498Z,1.07
2018-09-09T15:55:54.834Z,1.30
2018-09-09T15:58:22.104Z,1.00
2018-09-09T16:00:49.380Z,1.00
2018-09-09T16:03:16.600Z,1.00
2018-09-09T16:05:43.884Z,1.00
2018-09-09T16:08:11.179Z,0.90
2018-09-09T16:10:38.403Z,1.17
2018-09-09T16:13:05.644Z,0.90
2018-09-09T16:15:32.890Z,1.13
2018-09-09T16:18:00.149Z,1.33
2018-09-09T16:20:27.383Z,0.80
2018-09-09T16:22:54.643Z,1.00
2018-09-09T16:25:21.871Z,1.43
2018-09-09T16:27:49.085Z,1.00
2018-09-09T16:30:16.275Z,1.00
2018-09-09T16:32:43.553Z,0.90
2018-09-09T16:35:10.746Z,0.97
2018-09-09T16:37:37.978Z,0.90
2018-09-09T16:40:05.297Z,1.10
2018-09-09T16:42:32.647Z,0.80
2018-09-09T16:44:59.943Z,1.20
2018-09-09T16:47:27.280Z,0.90
2018-09-09T16:49:54.566Z,1.00
2018-09-09T16:52:21.908Z,1.10
2018-09-09T16:54:50.225Z,1.00
2018-09-09T16:57:17.451Z,1.10
2018-09-09T16:59:44.706Z,1.00
2018-09-09T17:02:11.945Z,0.93
2018-09-09T17:04:39.186Z,1.30
2018-09-09T17:07:06.417Z,1.03
2018-09-09T17:09:33.740Z,1.10
2018-09-09T17:12:01.003Z,1.33
2018-09-09T17:14:28.241Z,0.93
2018-09-09T17:16:55.401Z,1.20
2018-09-09T17:19:22.737Z,1.27
2018-09-09T17:21:50.045Z,1.10
2018-09-09T17:24:17.198Z,1.10
2018-09-09T17:26:44.435Z,1.00
2018-09-09T17:29:11.601Z,1.20
2018-09-09T17:31:38.873Z,1.37
2018-09-09T17:34:06.105Z,1.30
2018-09-09T17:36:33.378Z,1.17
2018-09-09T17:39:00.608Z,1.40
2018-09-09T17:41:27.888Z,1.43
2018-09-09T17:43:55.266Z,2.60
2018-09-09T17:46:22.466Z,1.67
2018-09-09T17:48:49.789Z,1.20
2018-09-09T17:51:17.085Z,1.10
2018-09-09T17:53:44.318Z,1.10
2018-09-09T17:56:11.546Z,1.20
2018-09-09T17:58:38.785Z,1.30
2018-09-09T18:01:06.032Z,1.30
2018-09-09T18:03:33.315Z,1.10
2018-09-09T18:06:00.630Z,1.07
2018-09-09T18:08:27.851Z,1.10
2018-09-09T18:10:55.126Z,1.23
2018-09-09T18:13:22.311Z,0.80
2018-09-09T18:15:49.626Z,1.53
2018-09-09T18:18:16.835Z,0.90
2018-09-09T18:20:44.132Z,1.13
2018-09-09T18:23:11.449Z,1.30
2018-09-09T18:25:39.763Z,1.10
2018-09-09T18:28:07.078Z,1.70
2018-09-09T18:30:34.304Z,1.40
2018-09-09T18:33:01.601Z,1.37
2018-09-09T18:35:29.114Z,1.03
2018-09-09T18:37:56.433Z,1.00
2018-09-09T18:40:23.740Z,1.40
2018-09-09T18:42:51.026Z,1.27
2018-09-09T18:45:18.295Z,1.80
2018-09-09T18:47:45.731Z,1.43
2018-09-09T18:50:12.860Z,1.50
2018-09-09T18:52:40.166Z,1.10
2018-09-09T18:55:07.393Z,0.97
2018-09-09T18:57:34.645Z,1.37
2018-09-09T19:00:01.991Z,1.23
2018-09-09T19:02:29.261Z,1.13
2018-09-09T19:04:56.548Z,1.80
2018-09-09T19:07:23.788Z,1.10
2018-09-09T19:09:50.976Z,1.67
2018-09-09T19:12:18.296Z,1.20
2018-09-09T19:14:45.514Z,1.00
2018-09-09T19:17:12.729Z,1.40
2018-09-09T19:19:39.966Z,1.30
2018-09-09T19:22:07.204Z,1.23
2018-09-09T19:24:34.420Z,1.10
2018-09-09T19:27:01.659Z,1.60
2018-09-09T19:29:28.950Z,1.33
2018-09-09T19:31:56.181Z,2.00
2018-09-09T19:34:23.590Z,1.63
2018-09-09T19:36:50.837Z,1.70
2018-09-09T19:39:18.104Z,1.70
2018-09-09T19:41:45.338Z,1.43
2018-09-09T19:44:12.681Z,1.70
2018-09-09T19:46:39.823Z,1.43
2018-09-09T19:49:07.138Z,1.60
2018-09-09T19:51:34.827Z,1.33
2018-09-09T19:54:02.029Z,1.30
2018-09-09T19:56:29.265Z,1.60
2018-09-09T19:58:56.522Z,1.13
2018-09-09T20:01:23.785Z,1.33
2018-09-09T20:03:50.959Z,1.20
2018-09-09T20:06:18.220Z,1.30
2018-09-09T20:08:45.397Z,1.50
2018-09-09T20:11:12.684Z,1.70
2018-09-09T20:13:39.941Z,1.30
2018-09-09T20:16:07.173Z,1.70
2018-09-09T20:18:34.486Z,1.80
2018-09-09T20:21:01.699Z,1.70
2018-09-09T20:23:28.942Z,1.50
2018-09-09T20:25:56.220Z,2.10
2018-09-09T20:28:23.432Z,2.13
2018-09-09T20:30:50.707Z,1.60
2018-09-09T20:33:17.970Z,1.70
2018-09-09T20:35:45.309Z,1.53
2018-09-09T20:38:12.583Z,1.60
2018-09-09T20:40:39.801Z,1.53
2018-09-09T20:43:07.057Z,1.30
2018-09-09T20:45:34.337Z,1.20
2018-09-09T20:48:01.611Z,1.60
2018-09-09T20:50:28.924Z,1.80
2018-09-09T20:52:56.154Z,1.93
2018-09-09T20:55:23.392Z,1.40
2018-09-09T20:57:50.613Z,1.40
2018-09-09T21:00:17.900Z,1.57
2018-09-09T21:02:45.121Z,1.43
2018-09-09T21:05:12.362Z,1.60
2018-09-09T21:07:39.628Z,1.57
2018-09-09T21:10:06.870Z,1.60
2018-09-09T21:12:34.223Z,1.70
2018-09-09T21:15:02.948Z,2.60
2018-09-09T21:17:30.454Z,1.50
2018-09-09T21:19:57.703Z,1.70
2018-09-09T21:22:24.901Z,1.97
2018-09-09T21:24:52.065Z,1.40
2018-09-09T21:27:19.331Z,1.80
2018-09-09T21:29:46.544Z,1.50
2018-09-09T21:32:13.848Z,1.40
2018-09-09T21:34:41.179Z,1.43
2018-09-09T21:37:08.362Z,1.60
2018-09-09T21:39:35.664Z,2.50
2018-09-09T21:42:02.899Z,1.87
2018-09-09T21:44:30.092Z,1.60
2018-09-09T21:46:57.373Z,1.70
2018-09-09T21:49:24.670Z,1.67
2018-09-09T21:51:51.989Z,1.93
2018-09-09T21:54:19.157Z,1.60
2018-09-09T21:56:46.375Z,1.47
2018-09-09T21:59:13.642Z,2.00
2018-09-09T22:01:46.549Z,1.50
2018-09-09T22:04:13.741Z,1.60
2018-09-09T22:06:40.949Z,1.93
2018-09-09T22:09:08.735Z,2.30
2018-09-09T22:11:36.321Z,1.70
2018-09-09T22:14:03.645Z,1.70
2018-09-09T22:16:30.949Z,1.60
2018-09-09T22:18:58.157Z,1.30
2018-09-09T22:21:25.446Z,1.30
2018-09-09T22:23:52.641Z,1.57
2018-09-09T22:26:19.940Z,1.67
2018-09-09T22:28:47.635Z,1.90
2018-09-09T22:31:14.851Z,1.50
2018-09-09T22:33:42.049Z,2.20
2018-09-09T22:36:09.618Z,1.80
2018-09-09T22:38:36.963Z,1.90
2018-09-09T22:41:04.265Z,2.07
2018-09-09T22:43:31.490Z,2.20
2018-09-09T22:45:59.176Z,1.90
2018-09-09T22:48:26.957Z,2.07
2018-09-09T22:50:54.169Z,1.67
2018-09-09T22:53:21.392Z,1.83
2018-09-09T22:55:48.698Z,2.27
2018-09-09T22:58:15.930Z,1.80
2018-09-09T23:00:43.232Z,1.70
2018-09-09T23:03:10.503Z,1.83
2018-09-09T23:05:37.824Z,1.90
2018-09-09T23:08:05.010Z,1.70
2018-09-09T23:10:32.268Z,2.10
2018-09-09T23:12:59.491Z,1.80
2018-09-09T23:15:27.635Z,2.50
2018-09-09T23:17:55.124Z,2.07
2018-09-09T23:20:22.392Z,1.90
2018-09-09T23:22:50.249Z,1.53
2018-09-09T23:25:17.479Z,2.43
2018-09-09T23:27:44.807Z,2.10
2018-09-09T23:30:12.085Z,1.60
2018-09-09T23:32:39.363Z,1.77
2018-09-09T23:35:06.668Z,1.90
2018-09-09T23:37:33.929Z,2.10
2018-09-09T23:40:01.169Z,2.17
2018-09-09T23:42:28.442Z,1.80
2018-09-09T23:44:55.663Z,2.30
2018-09-09T23:47:22.918Z,2.07
2018-09-09T23:49:50.099Z,2.03
2018-09-09T23:52:17.351Z,2.03
2018-09-09T23:54:44.799Z,1.80
2018-09-09T23:57:12.102Z,1.73
2018-09-09T23:59:39.342Z,2.30
